< < Back
Terminal Aerodrome Forecast


Current Version              Previous Versions:   1  2  3  4  5  6  7  8  9  

Terminal Aerodrome Forecast

445
FTUS44 KMRX 181126
TAFCHA
TAF
KCHA 181126Z 1812/1912 03006KT P6SM BKN050 OVC120
     FM190100 35004KT P6SM SCT060 BKN120=



Latest METAR

023
SAUS80 KWBC 182100 RRA
MTRCHA
METAR KCHA 182053Z 01008KT 10SM BKN065 BKN090 BKN130 OVC250 17/04 A3020
RMK AO2 SLP222 T01720039 58026


USA.gov is the U.S. government's official web portal to all federal, state and local government web resources and services.